Time;durP1;ratioP1;P1;durP2;ratioP2;P2;SDS_P1;SDS_P2;PMS_P1;PMS_P2;Temp;Humidity;BMP_temperature;BMP_pressure;BME280_temperature;BME280_humidity;BME280_pressure;Samples;Min_cycle;Max_cycle;Signal;HPM_P1;HPM_P2
2023/09/03 00:00:22;;;;;;;16.30;6.90;;;;;;;19.12;63.07;100907.23;125102;1102;102124;-78
2023/09/03 00:03:13;;;;;;;16.00;6.63;;;;;;;19.09;63.44;100915.20;125231;1102;101862;-79
2023/09/03 00:05:51;;;;;;;16.50;6.80;;;;;;;19.06;63.25;100913.42;125114;1102;104291;-77
2023/09/03 00:08:23;;;;;;;14.73;7.23;;;;;;;19.02;63.70;100917.81;125062;1102;104235;-78
2023/09/03 00:10:55;;;;;;;17.23;7.03;;;;;;;19.00;63.97;100913.38;125319;1102;101875;-79
2023/09/03 00:13:27;;;;;;;14.87;7.23;;;;;;;18.97;64.02;100913.35;125468;1102;102152;-79
2023/09/03 00:15:58;;;;;;;17.60;7.10;;;;;;;18.93;64.37;100907.13;126221;1100;101809;-78
2023/09/03 00:18:29;;;;;;;17.23;7.53;;;;;;;18.91;64.01;100906.20;125242;1102;104270;-78
2023/09/03 00:21:02;;;;;;;16.17;7.37;;;;;;;18.91;64.01;100898.23;124951;1102;102051;-78
2023/09/03 00:23:34;;;;;;;15.30;7.62;;;;;;;18.91;64.17;100890.25;125972;1100;102110;-77
2023/09/03 00:26:06;;;;;;;14.03;6.83;;;;;;;18.95;64.05;100894.73;125099;1102;104181;-78
2023/09/03 00:28:37;;;;;;;16.57;6.90;;;;;;;18.97;63.75;100892.95;125151;1102;101871;-78
2023/09/03 00:31:09;;;;;;;16.37;6.93;;;;;;;18.96;64.03;100899.14;125061;1102;101894;-79
2023/09/03 00:33:41;;;;;;;18.00;7.47;;;;;;;18.93;64.88;100892.92;125240;1101;101938;-79
2023/09/03 00:36:13;;;;;;;13.87;7.07;;;;;;;18.90;64.75;100893.81;124935;1102;104229;-78
2023/09/03 00:38:48;;;;;;;15.37;7.03;;;;;;;18.88;64.34;100887.56;125026;1102;101986;-77
2023/09/03 00:41:19;;;;;;;20.53;6.93;;;;;;;18.89;64.16;100880.50;125003;1102;102289;-78
2023/09/03 00:43:50;;;;;;;13.93;6.73;;;;;;;18.91;64.75;100876.08;124977;1102;101852;-78
2023/09/03 00:46:22;;;;;;;16.40;6.95;;;;;;;18.91;64.37;100876.95;124943;1102;103690;-78
2023/09/03 00:48:54;;;;;;;18.63;7.30;;;;;;;18.88;64.76;100876.93;125046;1102;102157;-78
2023/09/03 00:51:25;;;;;;;17.20;7.30;;;;;;;18.85;65.13;100872.50;124893;1102;102019;-78
2023/09/03 00:53:59;;;;;;;16.77;6.67;;;;;;;18.82;64.67;100872.45;126079;1100;101990;-79
2023/09/03 00:56:31;;;;;;;13.33;6.87;;;;;;;18.80;64.93;100870.64;125379;1102;104066;-78
2023/09/03 00:59:03;;;;;;;18.33;7.70;;;;;;;18.81;65.04;100867.12;124938;1102;102062;-78
2023/09/03 01:01:35;;;;;;;17.50;7.17;;;;;;;18.79;65.24;100860.87;124978;1102;104207;-78
2023/09/03 01:04:07;;;;;;;18.05;7.50;;;;;;;18.74;66.21;100859.95;124952;1102;102380;-78
2023/09/03 01:06:39;;;;;;;15.53;7.57;;;;;;;18.66;65.73;100854.58;124980;1102;104175;-79
2023/09/03 01:09:11;;;;;;;14.93;7.43;;;;;;;18.59;65.94;100858.05;124958;1102;104226;-78
2023/09/03 01:11:50;;;;;;;16.90;7.40;;;;;;;18.54;65.93;100852.70;125005;1102;101996;-79
2023/09/03 01:14:37;;;;;;;16.90;7.60;;;;;;;18.50;66.18;100848.25;125527;1100;102045;-77
2023/09/03 01:17:14;;;;;;;19.73;7.50;;;;;;;18.47;66.29;100851.77;126183;1100;102090;-79
2023/09/03 01:20:05;;;;;;;18.80;7.20;;;;;;;18.46;66.46;100857.06;126026;1101;101905;-78
2023/09/03 01:23:03;;;;;;;15.00;7.17;;;;;;;18.44;66.57;100849.08;125253;1102;104230;-77
2023/09/03 01:25:49;;;;;;;17.03;7.80;;;;;;;18.46;66.88;100857.06;125086;1102;104280;-77
2023/09/03 01:28:26;;;;;;;15.95;7.50;;;;;;;18.43;66.75;100857.95;125052;1102;102143;-78
2023/09/03 01:31:02;;;;;;;16.50;7.53;;;;;;;18.41;66.87;100853.48;125026;1102;117820;-80
2023/09/03 01:33:35;;;;;;;14.30;7.20;;;;;;;18.37;67.44;100854.32;124876;1102;102113;-77
2023/09/03 01:36:09;;;;;;;17.20;6.73;;;;;;;18.31;67.71;100848.08;124956;1100;104192;-77
2023/09/03 01:38:41;;;;;;;16.17;6.70;;;;;;;18.29;67.68;100856.91;125905;1101;103015;-77
2023/09/03 01:41:14;;;;;;;17.30;6.97;;;;;;;18.26;68.10;100860.44;125089;1102;104248;-77
2023/09/03 01:43:45;;;;;;;17.57;7.10;;;;;;;18.22;68.74;100858.62;125007;1100;102131;-77
2023/09/03 01:46:24;;;;;;;12.73;6.60;;;;;;;18.17;68.88;100859.44;124963;1102;102009;-77
2023/09/03 01:49:05;;;;;;;17.20;6.77;;;;;;;18.10;68.43;100863.80;124966;1102;104185;-76
2023/09/03 01:51:43;;;;;;;14.03;7.07;;;;;;;18.05;68.84;100857.56;125610;1100;109442;-76
2023/09/03 01:54:21;;;;;;;16.73;7.60;;;;;;;18.00;69.35;100857.51;124894;1102;102048;-79
2023/09/03 01:56:58;;;;;;;14.83;6.60;;;;;;;17.93;69.89;100861.84;124819;1102;101954;-77
2023/09/03 01:59:39;;;;;;;14.10;7.40;;;;;;;17.88;69.58;100854.68;124791;1102;104371;-77
2023/09/03 02:02:11;;;;;;;16.33;6.87;;;;;;;17.82;70.69;100857.27;124691;1102;104220;-77
2023/09/03 02:04:45;;;;;;;14.33;6.90;;;;;;;17.74;70.61;100854.52;124827;1102;101826;-77
2023/09/03 02:07:17;;;;;;;15.10;6.87;;;;;;;17.69;71.36;100862.42;124928;1101;104283;-78
2023/09/03 02:09:48;;;;;;;14.13;6.77;;;;;;;17.61;71.70;100861.45;124956;1101;102632;-78
2023/09/03 02:12:23;;;;;;;15.77;7.23;;;;;;;17.54;72.16;100862.23;125041;1102;101850;-77
2023/09/03 02:14:55;;;;;;;13.63;7.23;;;;;;;17.48;72.54;100857.72;125151;1102;104166;-78
2023/09/03 02:17:26;;;;;;;14.63;7.23;;;;;;;17.41;73.66;100866.48;125059;1102;104322;-79
2023/09/03 02:19:58;;;;;;;15.77;6.17;;;;;;;17.34;72.14;100868.17;125176;1102;101847;-78
2023/09/03 02:22:29;;;;;;;14.67;6.90;;;;;;;17.31;73.59;100875.17;124966;1102;101919;-78
2023/09/03 02:25:01;;;;;;;13.13;6.47;;;;;;;17.25;73.54;100868.92;124914;1102;101971;-78
2023/09/03 02:27:32;;;;;;;14.17;7.37;;;;;;;17.21;73.80;100864.44;125040;1102;102160;-79
2023/09/03 02:30:04;;;;;;;14.60;7.07;;;;;;;17.18;75.16;100874.12;125025;1102;104179;-77
2023/09/03 02:32:35;;;;;;;11.97;6.33;;;;;;;17.13;74.59;100876.70;125121;1099;102050;-77
2023/09/03 02:35:08;;;;;;;12.63;6.30;;;;;;;17.11;73.99;100874.88;126078;1101;101933;-80
2023/09/03 02:37:39;;;;;;;14.87;6.80;;;;;;;17.08;74.05;100883.70;125281;1102;104235;-78
2023/09/03 02:40:12;;;;;;;15.43;7.37;;;;;;;17.04;74.83;100877.44;125154;1102;102039;-77
2023/09/03 02:42:44;;;;;;;13.17;6.47;;;;;;;17.01;73.82;100868.56;124985;1102;109486;-78
2023/09/03 02:45:16;;;;;;;19.07;6.80;;;;;;;16.99;73.81;100875.61;125004;1101;102076;-77
2023/09/03 02:47:47;;;;;;;12.87;6.63;;;;;;;16.98;73.83;100871.16;124961;1102;102040;-78
2023/09/03 02:50:18;;;;;;;14.83;6.73;;;;;;;16.98;74.43;100865.86;125061;1102;102307;-78
2023/09/03 02:52:51;;;;;;;14.47;6.90;;;;;;;16.98;73.81;100856.14;125099;1102;104131;-77
2023/09/03 02:55:22;;;;;;;15.53;7.20;;;;;;;17.01;74.07;100863.26;124952;1102;101913;-80
2023/09/03 02:57:53;;;;;;;14.50;6.87;;;;;;;17.01;74.45;100863.26;124963;1102;101807;-78
2023/09/03 03:00:25;;;;;;;15.10;6.93;;;;;;;17.00;74.33;100874.72;124816;1102;104266;-77
2023/09/03 03:02:56;;;;;;;12.63;6.40;;;;;;;17.01;74.71;100865.91;124977;1102;107540;-77
2023/09/03 03:05:28;;;;;;;14.33;6.30;;;;;;;17.05;73.49;100875.70;124857;1102;104073;-78
2023/09/03 03:08:02;;;;;;;13.27;6.27;;;;;;;17.07;73.62;100868.66;124890;1102;104252;-77
2023/09/03 03:10:34;;;;;;;15.03;6.87;;;;;;;17.09;73.52;100864.25;124860;1101;101840;-78
2023/09/03 03:13:05;;;;;;;14.97;6.83;;;;;;;17.14;73.31;100864.32;125036;1102;104208;-76
2023/09/03 03:15:37;;;;;;;15.60;6.40;;;;;;;17.20;73.62;100862.67;124907;1102;104335;-76
2023/09/03 03:18:09;;;;;;;12.20;6.67;;;;;;;17.31;72.82;100869.88;125532;1102;102019;-76
2023/09/03 03:20:40;;;;;;;13.17;6.40;;;;;;;17.35;72.91;100872.59;124971;1100;104175;-77
2023/09/03 03:23:12;;;;;;;12.93;6.53;;;;;;;17.36;73.17;100868.20;124867;1102;104169;-77
2023/09/03 03:25:43;;;;;;;13.67;6.53;;;;;;;17.37;72.60;100859.34;125543;1102;102131;-77
2023/09/03 03:28:15;;;;;;;13.67;6.20;;;;;;;17.49;72.85;100858.63;124813;1102;104238;-78
2023/09/03 03:30:46;;;;;;;15.00;6.60;;;;;;;17.58;72.88;100854.33;124963;1101;104188;-77
2023/09/03 03:33:18;;;;;;;14.93;6.73;;;;;;;17.70;72.71;100853.60;124818;1102;101882;-76
2023/09/03 03:35:51;;;;;;;13.73;5.97;;;;;;;17.74;72.31;100865.13;124982;1102;104220;-77
2023/09/03 03:38:23;;;;;;;13.38;6.45;;;;;;;17.72;72.25;100861.58;125129;1102;101966;-78
2023/09/03 03:40:54;;;;;;;12.70;6.30;;;;;;;17.70;72.27;100858.91;125336;1100;102419;-78
2023/09/03 03:43:26;;;;;;;15.87;6.97;;;;;;;17.67;72.41;100861.52;125667;1102;101996;-77
2023/09/03 03:45:58;;;;;;;18.03;7.23;;;;;;;17.64;72.37;100864.14;125208;1102;104230;-78
2023/09/03 03:48:30;;;;;;;11.57;6.20;;;;;;;17.69;72.47;100856.23;125093;1102;104207;-78
2023/09/03 03:51:02;;;;;;;14.67;7.03;;;;;;;17.73;71.98;100863.34;125079;1102;102013;-77
2023/09/03 03:53:34;;;;;;;11.77;6.37;;;;;;;17.72;72.31;100861.58;125188;1102;102376;-78
2023/09/03 03:56:06;;;;;;;16.33;6.80;;;;;;;17.67;72.40;100866.83;125088;1101;104226;-79
2023/09/03 03:58:40;;;;;;;11.50;6.40;;;;;;;17.64;72.62;100857.92;124952;1102;104277;-78
2023/09/03 04:01:16;;;;;;;14.30;6.95;;;;;;;17.66;72.11;100861.50;125026;1102;104217;-78
2023/09/03 04:03:49;;;;;;;19.33;7.00;;;;;;;17.72;72.45;100861.58;125083;1101;102458;-77
2023/09/03 04:06:20;;;;;;;14.17;6.70;;;;;;;17.81;72.43;100867.00;125134;1102;104226;-78
2023/09/03 04:08:52;;;;;;;18.17;7.20;;;;;;;17.88;72.31;100858.25;125113;1101;104173;-77
2023/09/03 04:11:24;;;;;;;14.20;6.20;;;;;;;17.95;72.13;100864.52;125944;1102;101784;-78
2023/09/03 04:13:56;;;;;;;17.30;6.73;;;;;;;18.02;72.00;100862.84;125100;1102;104188;-78
2023/09/03 04:16:27;;;;;;;15.67;6.53;;;;;;;18.07;72.15;100854.02;125097;1101;102091;-78
2023/09/03 04:18:59;;;;;;;16.03;7.07;;;;;;;18.18;72.11;100854.14;124997;1102;101925;-79
2023/09/03 04:21:31;;;;;;;12.87;6.47;;;;;;;18.26;72.40;100848.91;125022;1102;104143;-78
2023/09/03 04:24:02;;;;;;;17.53;7.53;;;;;;;18.34;71.92;100844.58;124937;1102;104370;-77
2023/09/03 04:26:33;;;;;;;14.57;6.53;;;;;;;18.42;71.70;100847.31;126088;1101;104174;-80
2023/09/03 04:29:07;;;;;;;14.53;7.00;;;;;;;18.47;71.70;100849.11;125696;1102;102095;-78
2023/09/03 04:31:42;;;;;;;12.73;6.40;;;;;;;18.50;71.53;100840.28;125866;1102;102234;-79
2023/09/03 04:34:14;;;;;;;14.50;6.20;;;;;;;18.53;71.47;100836.74;125947;1102;102610;-79
2023/09/03 04:36:45;;;;;;;16.00;6.57;;;;;;;18.55;71.41;100837.66;126420;1101;102061;-79
2023/09/03 04:39:17;;;;;;;11.47;6.10;;;;;;;18.59;71.43;100835.05;125198;1102;102019;-78
2023/09/03 04:41:49;;;;;;;12.83;5.97;;;;;;;18.64;71.31;100830.65;125295;1102;101951;-80
2023/09/03 04:44:21;;;;;;;11.63;6.27;;;;;;;18.73;71.11;100831.59;125921;1101;101785;-81
2023/09/03 04:46:55;;;;;;;13.20;6.47;;;;;;;18.79;70.74;100834.29;126540;1100;101781;-79
2023/09/03 04:49:27;;;;;;;13.23;6.30;;;;;;;18.78;70.52;100848.48;124892;1102;101944;-78
2023/09/03 04:51:59;;;;;;;12.80;6.20;;;;;;;18.77;70.83;100847.57;124879;1102;104253;-78
2023/09/03 04:54:31;;;;;;;15.30;6.70;;;;;;;18.77;70.42;100844.03;126037;1098;102236;-79
2023/09/03 04:57:03;;;;;;;14.33;6.90;;;;;;;18.76;70.46;100855.53;124854;1099;104384;-78
2023/09/03 04:59:34;;;;;;;14.60;6.40;;;;;;;18.76;70.96;100864.42;124959;1102;102022;-78
2023/09/03 05:02:06;;;;;;;12.73;6.50;;;;;;;18.75;70.48;100867.06;125274;1099;101929;-79
2023/09/03 05:04:38;;;;;;;16.13;7.40;;;;;;;18.69;71.00;100866.12;124856;1100;104236;-78
2023/09/03 05:07:10;;;;;;;12.87;6.97;;;;;;;18.65;71.23;100874.05;124857;1102;104251;-78
2023/09/03 05:09:56;;;;;;;14.67;7.00;;;;;;;18.63;71.32;100871.37;124945;1102;102220;-79
2023/09/03 05:12:49;;;;;;;14.20;6.70;;;;;;;18.62;71.43;100874.94;124949;1102;101889;-79
2023/09/03 05:15:39;;;;;;;12.73;6.97;;;;;;;18.66;71.81;100871.41;124809;1099;102187;-80
2023/09/03 05:18:35;;;;;;;13.33;6.67;;;;;;;18.72;71.41;100872.36;124799;1102;104204;-79
2023/09/03 05:21:11;;;;;;;14.10;7.00;;;;;;;18.78;71.60;100859.12;124836;1102;101961;-78
2023/09/03 05:27:14;;;;;;;13.97;6.83;;;;;;;19.00;71.11;100858.41;124912;1102;102246;-78
2023/09/03 05:29:47;;;;;;;17.73;6.73;;;;;;;19.12;70.99;100854.95;125561;1102;101736;-78
2023/09/03 05:32:26;;;;;;;14.37;6.83;;;;;;;19.25;71.21;100855.91;124988;1102;102019;-79
2023/09/03 05:35:05;;;;;;;13.53;6.20;;;;;;;19.40;70.99;100849.80;125316;1102;102734;-79
2023/09/03 05:37:54;;;;;;;11.37;5.90;;;;;;;19.54;69.90;100847.17;125038;1099;102070;-79
2023/09/03 05:40:28;;;;;;;15.40;6.53;;;;;;;19.69;69.58;100841.03;125505;1102;101868;-78
2023/09/03 05:43:00;;;;;;;15.07;6.10;;;;;;;19.85;69.99;100836.67;125578;1100;102121;-78
2023/09/03 05:45:39;;;;;;;13.10;6.03;;;;;;;20.02;68.67;100834.05;125594;1099;105454;-79
2023/09/03 05:48:17;;;;;;;13.80;6.33;;;;;;;20.20;68.40;100827.88;125066;1102;104140;-79
2023/09/03 05:51:04;;;;;;;12.57;6.33;;;;;;;20.39;68.59;100834.11;124937;1102;104185;-78
2023/09/03 05:53:41;;;;;;;11.50;6.20;;;;;;;20.55;67.81;100829.66;124895;1102;104197;-78
2023/09/03 05:56:16;;;;;;;13.33;6.30;;;;;;;20.73;67.64;100829.69;124885;1102;102008;-79
2023/09/03 05:58:51;;;;;;;10.30;5.27;;;;;;;20.90;66.78;100826.13;125125;1100;104188;-78
2023/09/03 06:01:23;;;;;;;12.47;6.00;;;;;;;21.07;67.33;100828.77;125060;1099;102065;-79
2023/09/03 06:03:54;;;;;;;15.97;6.03;;;;;;;21.19;65.65;100829.61;124882;1099;104095;-78
2023/09/03 06:06:26;;;;;;;13.17;6.07;;;;;;;21.28;65.25;100830.47;124735;1102;101990;-78
2023/09/03 06:09:25;;;;;;;13.77;5.60;;;;;;;21.42;65.09;100831.30;125047;1102;101829;-78
2023/09/03 06:15:41;;;;;;;11.10;5.30;;;;;;;21.72;64.62;100829.42;125129;1102;104209;-81
2023/09/03 06:18:18;;;;;;;11.53;5.70;;;;;;;21.81;63.84;100824.03;124990;1101;102138;-80
2023/09/03 06:20:49;;;;;;;13.33;5.87;;;;;;;21.92;63.14;100823.09;124996;1103;102278;-79
2023/09/03 06:23:22;;;;;;;8.83;5.00;;;;;;;22.02;64.02;100825.70;125144;1100;102037;-81
2023/09/03 06:25:53;;;;;;;13.60;5.70;;;;;;;22.13;63.47;100825.63;125058;1102;104249;-80
2023/09/03 06:28:28;;;;;;;13.50;5.80;;;;;;;22.26;63.66;100826.43;124918;1099;102188;-80
2023/09/03 06:31:13;;;;;;;10.77;5.10;;;;;;;22.43;62.47;100826.34;124903;1099;104659;-80
2023/09/03 06:33:45;;;;;;;12.27;6.13;;;;;;;22.59;61.50;100827.09;124993;1099;104313;-78
2023/09/03 06:36:17;;;;;;;11.70;5.50;;;;;;;22.78;62.23;100825.12;124914;1099;104198;-79
2023/09/03 06:38:49;;;;;;;10.23;5.13;;;;;;;22.99;61.81;100818.69;125631;1102;101936;-81
2023/09/03 06:41:21;;;;;;;9.77;5.23;;;;;;;23.13;60.62;100816.77;124959;1101;101946;-80
2023/09/03 06:43:53;;;;;;;11.07;5.07;;;;;;;23.29;60.59;100825.50;124886;1102;102096;-79
2023/09/03 06:46:24;;;;;;;12.00;5.20;;;;;;;23.48;59.92;100814.57;125054;1099;102226;-79
2023/09/03 06:48:57;;;;;;;12.47;5.00;;;;;;;23.69;60.60;100818.78;125966;1099;101941;-78
2023/09/03 06:51:28;;;;;;;8.90;4.70;;;;;;;23.80;57.64;100816.83;124854;1099;104176;-78
2023/09/03 06:54:00;;;;;;;10.63;4.80;;;;;;;24.00;57.54;100818.39;124797;1099;104318;-79
2023/09/03 06:56:31;;;;;;;9.13;4.93;;;;;;;24.28;57.03;100826.88;125174;1099;104278;-79
2023/09/03 06:59:03;;;;;;;9.80;5.10;;;;;;;24.47;57.18;100815.86;124907;1102;102035;-81
2023/09/03 07:01:35;;;;;;;9.00;4.70;;;;;;;24.61;56.40;100823.71;124863;1102;104108;-79
2023/09/03 07:04:06;;;;;;;10.13;5.27;;;;;;;24.64;55.83;100820.97;124946;1100;102192;-80
2023/09/03 07:06:38;;;;;;;10.30;4.83;;;;;;;24.67;55.74;100827.16;124853;1100;102859;-80
2023/09/03 07:09:10;;;;;;;7.63;4.47;;;;;;;24.67;55.23;100820.92;124837;1100;102094;-79
2023/09/03 07:11:41;;;;;;;7.83;4.90;;;;;;;24.77;55.68;100822.51;124846;1099;104178;-78
2023/09/03 07:14:13;;;;;;;13.63;4.57;;;;;;;24.89;54.33;100824.97;124867;1099;104206;-78
2023/09/03 07:16:44;;;;;;;8.43;4.33;;;;;;;24.97;53.35;100834.69;124981;1099;101889;-79
2023/09/03 07:19:15;;;;;;;10.93;4.97;;;;;;;25.02;52.65;100822.06;124901;1102;104179;-78
2023/09/03 07:21:47;;;;;;;9.30;4.63;;;;;;;25.29;53.08;100821.55;125012;1102;104182;-79
2023/09/03 07:24:19;;;;;;;9.67;4.70;;;;;;;25.39;52.69;100826.74;124972;1102;102093;-78
2023/09/03 07:26:50;;;;;;;11.10;4.77;;;;;;;25.42;52.00;100827.55;125303;1100;104210;-79
2023/09/03 07:29:22;;;;;;;10.27;4.80;;;;;;;25.50;51.51;100827.39;125110;1099;104297;-79
2023/09/03 07:31:53;;;;;;;6.87;4.40;;;;;;;25.70;51.17;100818.91;124925;1102;103321;-80
2023/09/03 07:34:24;;;;;;;11.27;4.83;;;;;;;25.84;51.59;100816.79;124991;1101;104249;-78
2023/09/03 07:36:56;;;;;;;10.93;5.10;;;;;;;25.90;51.14;100820.25;124793;1099;104191;-79
2023/09/03 07:39:27;;;;;;;8.10;4.57;;;;;;;25.96;50.07;100818.33;124852;1102;104249;-78
2023/09/03 07:41:59;;;;;;;9.90;5.00;;;;;;;26.01;50.17;100813.75;124933;1102;102055;-79
2023/09/03 07:44:31;;;;;;;9.80;4.73;;;;;;;26.14;49.63;100818.84;124892;1102;104188;-78
2023/09/03 07:47:02;;;;;;;13.97;5.03;;;;;;;26.29;49.71;100817.59;124768;1102;102050;-77
2023/09/03 07:49:34;;;;;;;6.83;4.50;;;;;;;26.46;48.67;100819.84;124937;1102;104233;-78
2023/09/03 07:52:06;;;;;;;9.13;4.67;;;;;;;26.60;48.12;100822.19;125100;1102;101839;-78
2023/09/03 07:54:38;;;;;;;6.97;4.53;;;;;;;26.68;48.43;100823.80;124869;1099;104242;-78
2023/09/03 07:57:10;;;;;;;8.20;4.67;;;;;;;26.72;47.29;100820.11;125045;1102;102013;-81
2023/09/03 07:59:41;;;;;;;9.47;4.70;;;;;;;26.79;47.32;100817.27;124904;1102;103086;-80
2023/09/03 08:02:12;;;;;;;9.97;4.47;;;;;;;26.84;46.30;100810.81;124907;1102;102081;-80
2023/09/03 08:04:44;;;;;;;9.63;4.73;;;;;;;26.93;46.75;100812.38;124917;1101;104693;-78
2023/09/03 08:07:15;;;;;;;7.73;4.50;;;;;;;26.99;46.38;100803.23;124749;1102;102022;-79
2023/09/03 08:09:47;;;;;;;13.80;5.00;;;;;;;27.02;45.30;100813.92;125112;1102;102260;-79
2023/09/03 08:12:18;;;;;;;9.90;4.80;;;;;;;27.04;45.61;100801.31;124942;1100;104198;-81
2023/09/03 08:14:49;;;;;;;10.47;4.90;;;;;;;26.96;44.99;100806.91;125120;1101;101935;-81
2023/09/03 08:17:22;;;;;;;9.80;4.63;;;;;;;26.94;45.53;100810.56;125092;1102;104179;-79
2023/09/03 08:19:53;;;;;;;7.60;4.65;;;;;;;26.91;45.10;100800.75;125107;1102;104210;-80
2023/09/03 08:22:25;;;;;;;9.53;4.43;;;;;;;26.84;45.33;100800.05;124852;1101;104185;-79
2023/09/03 08:24:56;;;;;;;11.57;4.80;;;;;;;26.81;45.21;100808.20;124856;1102;104211;-82
2023/09/03 08:27:27;;;;;;;10.40;4.80;;;;;;;26.74;45.33;100806.62;125029;1102;102270;-83
2023/09/03 08:29:59;;;;;;;7.23;4.50;;;;;;;26.72;45.32;100805.75;125115;1102;104095;-80
2023/09/03 08:32:31;;;;;;;12.87;4.83;;;;;;;26.64;45.15;100803.23;124905;1102;104255;-80
2023/09/03 08:35:02;;;;;;;9.55;4.80;;;;;;;26.61;45.07;100813.20;125052;1102;102793;-80
2023/09/03 08:37:33;;;;;;;12.23;6.90;;;;;;;26.58;45.01;100799.83;125167;1099;101919;-82
2023/09/03 08:40:07;;;;;;;8.17;5.17;;;;;;;26.52;45.22;100799.06;125022;1102;102371;-80
2023/09/03 08:42:41;;;;;;;10.72;4.87;;;;;;;26.55;45.12;100804.38;124884;1102;102404;-79
2023/09/03 08:45:16;;;;;;;10.07;4.80;;;;;;;26.59;45.41;100796.22;124908;1102;103315;-81
2023/09/03 08:47:48;;;;;;;9.83;5.10;;;;;;;26.69;45.54;100798.66;124852;1102;104377;-80
2023/09/03 08:50:21;;;;;;;11.13;4.60;;;;;;;26.78;45.02;100799.33;124892;1102;104198;-80
2023/09/03 08:52:55;;;;;;;10.33;4.90;;;;;;;26.89;45.48;100792.71;124786;1101;104246;-80
2023/09/03 08:55:29;;;;;;;10.27;5.00;;;;;;;26.99;45.09;100798.75;124967;1102;104281;-81
2023/09/03 08:58:00;;;;;;;9.80;4.87;;;;;;;27.08;44.17;100797.59;124941;1102;101887;-82
2023/09/03 09:00:32;;;;;;;8.40;4.40;;;;;;;27.20;44.30;100802.63;124979;1101;104190;-84
2023/09/03 09:03:06;;;;;;;8.67;4.70;;;;;;;27.21;44.42;100795.45;125046;1102;104216;-82
2023/09/03 09:05:41;;;;;;;8.57;4.80;;;;;;;27.21;44.65;100799.02;125164;1102;104083;-82
2023/09/03 09:08:14;;;;;;;10.27;4.80;;;;;;;27.21;44.41;100800.84;125344;1102;102719;-82
2023/09/03 09:10:48;;;;;;;9.33;5.03;;;;;;;27.17;44.17;100797.33;125472;1100;102213;-81
2023/09/03 09:13:23;;;;;;;11.10;4.80;;;;;;;27.15;44.05;100790.24;125292;1099;101988;-80
2023/09/03 09:15:54;;;;;;;9.77;4.83;;;;;;;27.28;44.41;100791.64;125051;1102;104210;-79
2023/09/03 09:18:25;;;;;;;10.70;4.50;;;;;;;27.43;43.94;100787.66;124816;1099;101891;-81
2023/09/03 09:21:00;;;;;;;11.40;4.90;;;;;;;27.59;43.99;100785.38;124916;1102;102013;-80
2023/09/03 09:23:32;;;;;;;8.60;4.67;;;;;;;27.69;42.87;100783.27;124905;1102;104326;-80
2023/09/03 09:26:15;;;;;;;12.20;4.70;;;;;;;27.74;43.62;100784.90;124808;1102;102220;-79
2023/09/03 09:29:00;;;;;;;9.07;4.60;;;;;;;27.78;43.28;100778.49;124766;1102;104194;-79
2023/09/03 09:31:33;;;;;;;8.83;5.10;;;;;;;27.76;43.60;100771.38;125268;1099;104258;-81
2023/09/03 09:34:13;;;;;;;12.73;5.08;;;;;;;27.76;42.99;100772.25;125017;1102;104229;-80
2023/09/03 09:36:55;;;;;;;9.60;4.90;;;;;;;27.72;43.08;100769.69;125137;1099;101868;-80
2023/09/03 09:39:27;;;;;;;8.00;5.00;;;;;;;27.64;42.58;100764.54;124942;1102;102093;-82
2023/09/03 09:42:11;;;;;;;9.23;5.27;;;;;;;27.55;43.01;100762.13;124929;1102;102808;-81
2023/09/03 09:44:59;;;;;;;12.40;5.27;;;;;;;27.55;43.06;100764.83;125037;1102;101907;-81
2023/09/03 09:47:30;;;;;;;11.20;5.60;;;;;;;27.57;42.87;100769.25;124990;1102;102417;-80
2023/09/03 09:50:01;;;;;;;11.87;4.60;;;;;;;27.59;41.80;100767.38;124899;1099;104291;-82
2023/09/03 09:52:37;;;;;;;12.73;5.10;;;;;;;27.52;41.21;100763.13;124877;1099;104325;-81
2023/09/03 09:55:17;;;;;;;9.40;4.30;;;;;;;27.48;40.71;100757.88;124933;1102;104179;-81
2023/09/03 09:57:52;;;;;;;10.90;4.90;;;;;;;27.58;41.23;100759.34;124930;1099;104344;-81
2023/09/03 10:00:36;;;;;;;6.70;4.33;;;;;;;27.68;40.74;100758.13;124883;1100;104274;-80
2023/09/03 10:03:11;;;;;;;14.00;4.70;;;;;;;27.74;41.03;100749.86;124920;1102;104214;-81
2023/09/03 10:06:14;;;;;;;11.40;4.77;;;;;;;27.78;40.45;100756.02;125009;1102;102730;-82
2023/09/03 10:08:54;;;;;;;11.27;4.80;;;;;;;27.83;40.67;100751.39;124973;1102;102173;-81
2023/09/03 10:11:26;;;;;;;9.53;4.37;;;;;;;27.82;40.38;100746.91;124980;1099;104284;-80
2023/09/03 10:14:00;;;;;;;9.93;4.27;;;;;;;27.83;40.21;100751.39;124853;1099;101941;-82
2023/09/03 10:16:35;;;;;;;7.23;4.40;;;;;;;27.77;39.93;100743.49;124966;1099;101906;-81
2023/09/03 10:19:11;;;;;;;8.40;4.33;;;;;;;27.76;39.74;100739.02;124944;1101;101989;-80
2023/09/03 10:21:45;;;;;;;9.33;4.33;;;;;;;27.82;39.88;100738.83;124759;1102;107884;-80
2023/09/03 10:24:19;;;;;;;10.90;4.80;;;;;;;27.82;40.03;100722.65;124765;1102;104294;-81
2023/09/03 10:26:55;;;;;;;8.37;4.40;;;;;;;27.96;40.12;100722.23;124902;1102;101888;-82
2023/09/03 10:29:28;;;;;;;8.10;3.93;;;;;;;28.08;39.76;100720.92;125070;1102;104092;-81
2023/09/03 10:32:01;;;;;;;7.57;4.27;;;;;;;28.02;39.63;100711.24;124887;1102;118884;-81
2023/09/03 10:34:34;;;;;;;7.65;3.92;;;;;;;27.97;39.12;100711.39;124881;1099;104064;-81
2023/09/03 10:37:07;;;;;;;6.60;4.07;;;;;;;28.00;39.47;100713.09;124805;1100;102333;-81
2023/09/03 10:39:40;;;;;;;;;;;;;;;28.09;39.77;100703.81;124927;1099;102342;-82
2023/09/03 10:42:31;;;;;;;8.53;3.70;;;;;;;28.22;39.90;100704.27;124961;1102;102086;-82
2023/09/03 10:45:03;;;;;;;7.53;3.80;;;;;;;28.35;39.62;100702.05;124803;1102;101932;-82
2023/09/03 10:47:54;;;;;;;7.77;3.43;;;;;;;28.44;38.63;100707.13;124714;1102;104175;-81
2023/09/03 10:50:50;;;;;;;7.17;4.13;;;;;;;28.48;39.06;100690.73;124775;1101;104248;-82
2023/09/03 10:53:39;;;;;;;15.40;4.23;;;;;;;28.56;38.73;100687.77;124926;1100;104281;-80
2023/09/03 10:56:13;;;;;;;8.07;3.93;;;;;;;28.62;38.59;100684.87;124980;1099;101820;-83
2023/09/03 10:58:58;;;;;;;8.13;3.90;;;;;;;28.72;38.73;100681.84;124900;1102;102099;-80
2023/09/03 11:01:31;;;;;;;7.13;3.80;;;;;;;28.75;38.58;100681.73;124768;1102;102034;-82
2023/09/03 11:04:02;;;;;;;;;;;;;;;28.68;38.01;100673.85;124938;1102;101929;-79
2023/09/03 11:06:34;;;;;;;5.43;3.63;;;;;;;28.71;38.27;100674.70;124865;1102;104224;-81
2023/09/03 11:09:25;;;;;;;6.78;3.65;;;;;;;28.69;38.46;100678.33;124876;1100;104290;-81
2023/09/03 11:12:03;;;;;;;8.90;4.07;;;;;;;28.71;38.27;100667.47;124879;1099;104366;-81
2023/09/03 11:14:36;;;;;;;6.30;3.60;;;;;;;28.75;38.22;100665.53;124860;1099;102064;-82
2023/09/03 11:17:13;;;;;;;5.12;3.42;;;;;;;28.78;38.04;100663.61;124919;1102;102209;-82
2023/09/03 11:19:45;;;;;;;6.60;3.83;;;;;;;28.83;38.18;100658.04;124877;1099;104204;-81
2023/09/03 11:22:19;;;;;;;8.00;3.77;;;;;;;28.86;38.36;100649.83;124858;1099;102084;-81
2023/09/03 11:24:50;;;;;;;5.93;3.97;;;;;;;28.84;38.12;100647.19;124843;1102;104215;-81
2023/09/03 11:27:22;;;;;;;6.00;3.60;;;;;;;28.89;38.04;100643.41;124915;1102;104169;-82
2023/09/03 11:30:05;;;;;;;5.17;3.30;;;;;;;28.95;38.25;100640.47;124819;1102;104430;-83
2023/09/03 11:32:39;;;;;;;8.57;3.57;;;;;;;28.99;37.95;100644.83;124960;1102;101865;-82
2023/09/03 11:35:10;;;;;;;6.83;3.87;;;;;;;29.08;37.85;100644.47;124918;1099;104731;-82
2023/09/03 11:37:44;;;;;;;6.80;3.40;;;;;;;29.23;37.71;100637.59;124768;1102;102026;-82
2023/09/03 11:40:18;;;;;;;4.57;3.50;;;;;;;29.25;37.99;100633.03;124935;1102;104332;-82
2023/09/03 11:42:52;;;;;;;5.10;3.57;;;;;;;29.22;37.76;100622.34;124852;1102;104808;-81